sensor_id;sensor_type;location;lat;lon;timestamp;pressure;altitude;pressure_sealevel;temperature;humidity
23321;BME280;33376;51.306;4.752;2023-01-29T00:00:00;103286.84;;;-2.09;nan
23321;BME280;33376;51.306;4.752;2023-01-29T00:02:25;103294.00;;;-2.02;nan
23321;BME280;33376;51.306;4.752;2023-01-29T00:04:51;103287.06;;;-2.03;nan
23321;BME280;33376;51.306;4.752;2023-01-29T00:07:16;103293.25;;;-2.00;nan
23321;BME280;33376;51.306;4.752;2023-01-29T00:09:41;103288.66;;;-2.07;nan
23321;BME280;33376;51.306;4.752;2023-01-29T00:12:07;103275.28;;;-2.17;nan
23321;BME280;33376;51.306;4.752;2023-01-29T00:14:33;103281.66;;;-2.09;nan
23321;BME280;33376;51.306;4.752;2023-01-29T00:16:58;103286.25;;;-2.01;nan
23321;BME280;33376;51.306;4.752;2023-01-29T00:19:23;103276.41;;;-2.11;nan
23321;BME280;33376;51.306;4.752;2023-01-29T00:21:49;103269.16;;;-2.19;nan
23321;BME280;33376;51.306;4.752;2023-01-29T00:24:14;103271.53;;;-2.25;nan
23321;BME280;33376;51.306;4.752;2023-01-29T00:26:39;103274.34;;;-2.19;nan
23321;BME280;33376;51.306;4.752;2023-01-29T00:29:06;103268.94;;;-2.25;nan
23321;BME280;33376;51.306;4.752;2023-01-29T00:31:31;103271.97;;;-2.37;nan
23321;BME280;33376;51.306;4.752;2023-01-29T00:33:56;103265.81;;;-2.39;nan
23321;BME280;33376;51.306;4.752;2023-01-29T00:36:22;103262.63;;;-2.32;nan
23321;BME280;33376;51.306;4.752;2023-01-29T00:38:55;103271.53;;;-2.25;nan
23321;BME280;33376;51.306;4.752;2023-01-29T00:41:22;103262.34;;;-2.16;nan
23321;BME280;33376;51.306;4.752;2023-01-29T00:44:06;103261.13;;;-2.25;nan
23321;BME280;33376;51.306;4.752;2023-01-29T00:46:50;103249.81;;;-2.27;nan
23321;BME280;33376;51.306;4.752;2023-01-29T00:49:15;103245.38;;;-2.06;nan
23321;BME280;33376;51.306;4.752;2023-01-29T00:51:41;103249.13;;;-1.98;nan
23321;BME280;33376;51.306;4.752;2023-01-29T00:54:06;103250.06;;;-2.20;nan
23321;BME280;33376;51.306;4.752;2023-01-29T00:56:32;103249.59;;;-2.33;nan
23321;BME280;33376;51.306;4.752;2023-01-29T00:58:58;103254.00;;;-2.31;nan
23321;BME280;33376;51.306;4.752;2023-01-29T01:01:23;103247.25;;;-2.26;nan
23321;BME280;33376;51.306;4.752;2023-01-29T01:04:08;103240.72;;;-2.15;nan
23321;BME280;33376;51.306;4.752;2023-01-29T01:06:35;103240.56;;;-2.19;nan
23321;BME280;33376;51.306;4.752;2023-01-29T01:09:01;103228.31;;;-2.22;nan
23321;BME280;33376;51.306;4.752;2023-01-29T01:11:45;103235.09;;;-2.27;nan
23321;BME280;33376;51.306;4.752;2023-01-29T01:14:10;103234.22;;;-2.27;nan
23321;BME280;33376;51.306;4.752;2023-01-29T01:16:35;103224.47;;;-2.33;nan
23321;BME280;33376;51.306;4.752;2023-01-29T01:19:01;103214.38;;;-2.25;nan
23321;BME280;33376;51.306;4.752;2023-01-29T01:21:27;103217.94;;;-2.22;nan
23321;BME280;33376;51.306;4.752;2023-01-29T01:23:52;103226.88;;;-2.14;nan
23321;BME280;33376;51.306;4.752;2023-01-29T01:26:17;103224.38;;;-2.12;nan
23321;BME280;33376;51.306;4.752;2023-01-29T01:28:42;103221.03;;;-2.08;nan
23321;BME280;33376;51.306;4.752;2023-01-29T01:31:09;103218.97;;;-2.17;nan
23321;BME280;33376;51.306;4.752;2023-01-29T01:33:34;103220.53;;;-2.22;nan
23321;BME280;33376;51.306;4.752;2023-01-29T01:36:01;103228.28;;;-2.23;nan
23321;BME280;33376;51.306;4.752;2023-01-29T01:38:26;103230.31;;;-2.15;nan
23321;BME280;33376;51.306;4.752;2023-01-29T01:40:51;103237.41;;;-2.11;nan
23321;BME280;33376;51.306;4.752;2023-01-29T01:43:17;103236.66;;;-2.07;nan
23321;BME280;33376;51.306;4.752;2023-01-29T01:45:42;103238.44;;;-2.06;nan
23321;BME280;33376;51.306;4.752;2023-01-29T01:48:14;103239.72;;;-1.95;nan
23321;BME280;33376;51.306;4.752;2023-01-29T01:50:44;103245.38;;;-1.81;nan
23321;BME280;33376;51.306;4.752;2023-01-29T01:53:11;103244.41;;;-1.83;nan
23321;BME280;33376;51.306;4.752;2023-01-29T01:55:39;103231.47;;;-1.82;nan
23321;BME280;33376;51.306;4.752;2023-01-29T01:58:11;103239.31;;;-1.80;nan
23321;BME280;33376;51.306;4.752;2023-01-29T02:00:37;103250.06;;;-1.71;nan
23321;BME280;33376;51.306;4.752;2023-01-29T02:03:03;103250.97;;;-1.69;nan
23321;BME280;33376;51.306;4.752;2023-01-29T02:05:47;103250.16;;;-1.68;nan
23321;BME280;33376;51.306;4.752;2023-01-29T02:08:36;103252.28;;;-1.57;nan
23321;BME280;33376;51.306;4.752;2023-01-29T02:11:24;103250.91;;;-1.45;nan
23321;BME280;33376;51.306;4.752;2023-01-29T02:13:49;103258.56;;;-1.50;nan
23321;BME280;33376;51.306;4.752;2023-01-29T02:16:18;103260.28;;;-1.51;nan
23321;BME280;33376;51.306;4.752;2023-01-29T02:18:43;103257.03;;;-1.43;nan
23321;BME280;33376;51.306;4.752;2023-01-29T02:31:44;103260.38;;;-1.21;nan
23321;BME280;33376;51.306;4.752;2023-01-29T02:37:25;103244.44;;;-1.03;nan
23321;BME280;33376;51.306;4.752;2023-01-29T02:40:42;103236.69;;;-1.02;nan
23321;BME280;33376;51.306;4.752;2023-01-29T02:42:52;103237.03;;;-0.91;nan
23321;BME280;33376;51.306;4.752;2023-01-29T02:45:28;103240.63;;;-0.88;nan
23321;BME280;33376;51.306;4.752;2023-01-29T02:47:57;103239.72;;;-0.88;nan
23321;BME280;33376;51.306;4.752;2023-01-29T02:50:41;103241.69;;;-0.80;nan
23321;BME280;33376;51.306;4.752;2023-01-29T02:55:37;103240.97;;;-0.76;nan
23321;BME280;33376;51.306;4.752;2023-01-29T02:58:16;103235.84;;;-0.73;nan
23321;BME280;33376;51.306;4.752;2023-01-29T03:00:45;103232.47;;;-0.70;nan
23321;BME280;33376;51.306;4.752;2023-01-29T03:03:19;103229.34;;;-0.57;nan
23321;BME280;33376;51.306;4.752;2023-01-29T03:06:05;103239.00;;;-0.55;nan
23321;BME280;33376;51.306;4.752;2023-01-29T03:11:04;103239.56;;;-0.65;nan
23321;BME280;33376;51.306;4.752;2023-01-29T03:13:35;103239.81;;;-0.56;nan
23321;BME280;33376;51.306;4.752;2023-01-29T03:16:02;103235.50;;;-0.26;nan
23321;BME280;33376;51.306;4.752;2023-01-29T03:18:32;103236.09;;;-0.34;nan
23321;BME280;33376;51.306;4.752;2023-01-29T03:21:06;103231.78;;;-0.34;nan
23321;BME280;33376;51.306;4.752;2023-01-29T03:23:53;103238.75;;;-0.33;nan
23321;BME280;33376;51.306;4.752;2023-01-29T03:26:37;103236.47;;;-0.21;nan
23321;BME280;33376;51.306;4.752;2023-01-29T03:29:22;103224.94;;;-0.29;nan
23321;BME280;33376;51.306;4.752;2023-01-29T03:32:07;103229.78;;;-0.11;nan
23321;BME280;33376;51.306;4.752;2023-01-29T03:34:34;103226.00;;;-0.22;nan
23321;BME280;33376;51.306;4.752;2023-01-29T03:37:06;103216.47;;;-0.22;nan
23321;BME280;33376;51.306;4.752;2023-01-29T03:39:33;103215.63;;;-0.21;nan
23321;BME280;33376;51.306;4.752;2023-01-29T03:49:50;103220.97;;;-0.16;nan
23321;BME280;33376;51.306;4.752;2023-01-29T03:52:27;103211.34;;;-0.19;nan
23321;BME280;33376;51.306;4.752;2023-01-29T03:57:41;103202.72;;;0.51;nan
23321;BME280;33376;51.306;4.752;2023-01-29T04:00:19;103207.59;;;0.03;nan
23321;BME280;33376;51.306;4.752;2023-01-29T04:02:49;103206.44;;;-0.08;nan
23321;BME280;33376;51.306;4.752;2023-01-29T04:05:18;103202.03;;;-0.09;nan
23321;BME280;33376;51.306;4.752;2023-01-29T04:07:44;103199.16;;;-0.20;nan
23321;BME280;33376;51.306;4.752;2023-01-29T04:10:12;103196.25;;;0.03;nan
23321;BME280;33376;51.306;4.752;2023-01-29T04:12:58;103196.13;;;-0.04;nan
23321;BME280;33376;51.306;4.752;2023-01-29T04:15:27;103199.72;;;0.02;nan
23321;BME280;33376;51.306;4.752;2023-01-29T04:17:54;103202.22;;;-0.02;nan
23321;BME280;33376;51.306;4.752;2023-01-29T04:20:19;103196.16;;;-0.02;nan
23321;BME280;33376;51.306;4.752;2023-01-29T04:22:46;103196.34;;;0.06;nan
23321;BME280;33376;51.306;4.752;2023-01-29T04:25:12;103197.34;;;0.11;nan
23321;BME280;33376;51.306;4.752;2023-01-29T04:27:44;103185.06;;;0.41;nan
23321;BME280;33376;51.306;4.752;2023-01-29T04:46:16;103161.75;;;0.48;nan
23321;BME280;33376;51.306;4.752;2023-01-29T04:49:22;103156.69;;;0.54;nan
23321;BME280;33376;51.306;4.752;2023-01-29T04:51:59;103153.88;;;0.47;nan
23321;BME280;33376;51.306;4.752;2023-01-29T04:54:33;103149.47;;;0.44;nan
23321;BME280;33376;51.306;4.752;2023-01-29T04:59:32;103138.00;;;0.38;nan
23321;BME280;33376;51.306;4.752;2023-01-29T05:02:00;103125.91;;;0.40;nan
23321;BME280;33376;51.306;4.752;2023-01-29T05:04:29;103122.94;;;0.63;nan
23321;BME280;33376;51.306;4.752;2023-01-29T05:06:56;103118.66;;;0.65;nan
23321;BME280;33376;51.306;4.752;2023-01-29T05:09:22;103118.31;;;0.52;nan
23321;BME280;33376;51.306;4.752;2023-01-29T05:11:49;103118.38;;;0.53;nan
23321;BME280;33376;51.306;4.752;2023-01-29T05:14:16;103120.97;;;0.53;nan
23321;BME280;33376;51.306;4.752;2023-01-29T05:16:46;103121.09;;;0.59;nan
23321;BME280;33376;51.306;4.752;2023-01-29T05:19:15;103121.06;;;0.58;nan
23321;BME280;33376;51.306;4.752;2023-01-29T05:21:42;103116.66;;;0.54;nan
23321;BME280;33376;51.306;4.752;2023-01-29T05:24:09;103114.09;;;0.57;nan
23321;BME280;33376;51.306;4.752;2023-01-29T05:26:34;103119.22;;;0.52;nan
23321;BME280;33376;51.306;4.752;2023-01-29T05:29:19;103122.00;;;0.60;nan
23321;BME280;33376;51.306;4.752;2023-01-29T05:31:44;103119.41;;;0.61;nan
23321;BME280;33376;51.306;4.752;2023-01-29T05:34:09;103107.31;;;0.65;nan
23321;BME280;33376;51.306;4.752;2023-01-29T05:36:35;103119.66;;;0.72;nan
23321;BME280;33376;51.306;4.752;2023-01-29T05:39:00;103116.00;;;0.64;nan
23321;BME280;33376;51.306;4.752;2023-01-29T05:41:25;103114.50;;;0.75;nan
23321;BME280;33376;51.306;4.752;2023-01-29T05:43:50;103098.84;;;0.75;nan
23321;BME280;33376;51.306;4.752;2023-01-29T05:46:15;103100.53;;;0.73;nan
23321;BME280;33376;51.306;4.752;2023-01-29T05:48:41;103104.94;;;0.75;nan
23321;BME280;33376;51.306;4.752;2023-01-29T05:51:06;103102.50;;;0.83;nan
23321;BME280;33376;51.306;4.752;2023-01-29T05:53:31;103097.34;;;0.86;nan
23321;BME280;33376;51.306;4.752;2023-01-29T05:55:59;103097.34;;;0.86;nan
23321;BME280;33376;51.306;4.752;2023-01-29T05:58:24;103103.44;;;0.88;nan
23321;BME280;33376;51.306;4.752;2023-01-29T06:00:49;103103.44;;;0.88;nan
23321;BME280;33376;51.306;4.752;2023-01-29T06:03:15;103095.47;;;0.80;nan
23321;BME280;33376;51.306;4.752;2023-01-29T06:05:40;103105.22;;;0.87;nan
23321;BME280;33376;51.306;4.752;2023-01-29T06:08:05;103108.69;;;0.88;nan
23321;BME280;33376;51.306;4.752;2023-01-29T06:10:31;103118.03;;;0.78;nan
23321;BME280;33376;51.306;4.752;2023-01-29T06:12:56;103111.38;;;0.91;nan
23321;BME280;33376;51.306;4.752;2023-01-29T06:15:21;103118.47;;;0.98;nan
23321;BME280;33376;51.306;4.752;2023-01-29T06:17:47;103112.34;;;0.97;nan
23321;BME280;33376;51.306;4.752;2023-01-29T06:20:12;103102.06;;;1.03;nan
23321;BME280;33376;51.306;4.752;2023-01-29T06:22:37;103110.13;;;1.15;nan
23321;BME280;33376;51.306;4.752;2023-01-29T06:25:02;103110.16;;;1.17;nan
23321;BME280;33376;51.306;4.752;2023-01-29T06:27:28;103116.09;;;1.08;nan
23321;BME280;33376;51.306;4.752;2023-01-29T06:29:53;103101.81;;;1.36;nan
23321;BME280;33376;51.306;4.752;2023-01-29T06:32:18;103102.41;;;1.21;nan
23321;BME280;33376;51.306;4.752;2023-01-29T06:34:43;103112.72;;;1.14;nan
23321;BME280;33376;51.306;4.752;2023-01-29T06:37:09;103108.25;;;1.08;nan
23321;BME280;33376;51.306;4.752;2023-01-29T06:39:34;103100.66;;;1.20;nan
23321;BME280;33376;51.306;4.752;2023-01-29T06:41:59;103098.84;;;1.16;nan
23321;BME280;33376;51.306;4.752;2023-01-29T06:44:24;103101.19;;;1.49;nan
23321;BME280;33376;51.306;4.752;2023-01-29T06:46:50;103107.56;;;1.18;nan
23321;BME280;33376;51.306;4.752;2023-01-29T06:49:15;103098.41;;;1.38;nan
23321;BME280;33376;51.306;4.752;2023-01-29T06:51:40;103091.81;;;1.14;nan
23321;BME280;33376;51.306;4.752;2023-01-29T06:54:05;103078.59;;;1.05;nan
23321;BME280;33376;51.306;4.752;2023-01-29T06:56:32;103076.69;;;0.98;nan
23321;BME280;33376;51.306;4.752;2023-01-29T06:58:57;103080.00;;;0.89;nan
23321;BME280;33376;51.306;4.752;2023-01-29T07:01:22;103074.72;;;0.88;nan
23321;BME280;33376;51.306;4.752;2023-01-29T07:03:48;103062.53;;;0.87;nan
23321;BME280;33376;51.306;4.752;2023-01-29T07:06:14;103053.94;;;0.91;nan
23321;BME280;33376;51.306;4.752;2023-01-29T07:08:40;103058.16;;;0.84;nan
23321;BME280;33376;51.306;4.752;2023-01-29T07:11:05;103066.03;;;0.87;nan
23321;BME280;33376;51.306;4.752;2023-01-29T07:13:31;103066.84;;;0.85;nan
23321;BME280;33376;51.306;4.752;2023-01-29T07:15:57;103061.63;;;0.85;nan
23321;BME280;33376;51.306;4.752;2023-01-29T07:18:23;103071.22;;;0.86;nan
23321;BME280;33376;51.306;4.752;2023-01-29T07:20:48;103072.13;;;0.88;nan
23321;BME280;33376;51.306;4.752;2023-01-29T07:23:13;103084.34;;;0.89;nan
23321;BME280;33376;51.306;4.752;2023-01-29T07:25:39;103077.28;;;0.85;nan
23321;BME280;33376;51.306;4.752;2023-01-29T07:28:04;103079.19;;;0.92;nan
23321;BME280;33376;51.306;4.752;2023-01-29T07:30:30;103074.13;;;1.01;nan
23321;BME280;33376;51.306;4.752;2023-01-29T07:32:59;103079.22;;;0.93;nan
23321;BME280;33376;51.306;4.752;2023-01-29T07:35:25;103078.28;;;0.91;nan
23321;BME280;33376;51.306;4.752;2023-01-29T07:37:50;103073.31;;;1.02;nan
23321;BME280;33376;51.306;4.752;2023-01-29T07:40:15;103088.06;;;1.00;nan
23321;BME280;33376;51.306;4.752;2023-01-29T07:42:41;103085.38;;;0.97;nan
23321;BME280;33376;51.306;4.752;2023-01-29T07:45:08;103081.97;;;1.01;nan
23321;BME280;33376;51.306;4.752;2023-01-29T07:47:34;103075.06;;;1.03;nan
23321;BME280;33376;51.306;4.752;2023-01-29T07:49:59;103078.53;;;1.02;nan
23321;BME280;33376;51.306;4.752;2023-01-29T07:52:24;103092.50;;;1.05;nan
23321;BME280;33376;51.306;4.752;2023-01-29T07:54:49;103081.16;;;1.03;nan
23321;BME280;33376;51.306;4.752;2023-01-29T07:57:15;103082.16;;;1.08;nan
23321;BME280;33376;51.306;4.752;2023-01-29T07:59:40;103090.91;;;1.13;nan
23321;BME280;33376;51.306;4.752;2023-01-29T08:02:05;103092.75;;;1.17;nan
23321;BME280;33376;51.306;4.752;2023-01-29T08:04:30;103082.25;;;1.14;nan
23321;BME280;33376;51.306;4.752;2023-01-29T08:06:55;103082.41;;;1.22;nan
23321;BME280;33376;51.306;4.752;2023-01-29T08:09:21;103078.06;;;1.22;nan
23321;BME280;33376;51.306;4.752;2023-01-29T08:11:46;103071.03;;;1.20;nan
23321;BME280;33376;51.306;4.752;2023-01-29T08:14:11;103065.81;;;1.21;nan
23321;BME280;33376;51.306;4.752;2023-01-29T08:16:36;103072.91;;;1.27;nan
23321;BME280;33376;51.306;4.752;2023-01-29T08:19:02;103062.63;;;1.36;nan
23321;BME280;33376;51.306;4.752;2023-01-29T08:21:27;103064.53;;;1.44;nan
23321;BME280;33376;51.306;4.752;2023-01-29T08:23:52;103066.31;;;1.47;nan
23321;BME280;33376;51.306;4.752;2023-01-29T08:26:17;103061.88;;;1.43;nan
23321;BME280;33376;51.306;4.752;2023-01-29T08:28:43;103055.00;;;1.48;nan
23321;BME280;33376;51.306;4.752;2023-01-29T08:31:14;103052.38;;;1.46;nan
23321;BME280;33376;51.306;4.752;2023-01-29T08:33:40;103048.00;;;1.47;nan
23321;BME280;33376;51.306;4.752;2023-01-29T08:36:06;103043.78;;;1.53;nan
23321;BME280;33376;51.306;4.752;2023-01-29T08:38:31;103049.19;;;1.64;nan
23321;BME280;33376;51.306;4.752;2023-01-29T08:40:56;103047.56;;;1.69;nan
23321;BME280;33376;51.306;4.752;2023-01-29T08:43:21;103049.25;;;1.67;nan
23321;BME280;33376;51.306;4.752;2023-01-29T08:45:46;103049.22;;;1.66;nan
23321;BME280;33376;51.306;4.752;2023-01-29T08:48:12;103056.22;;;1.68;nan
23321;BME280;33376;51.306;4.752;2023-01-29T08:50:37;103055.25;;;1.62;nan
23321;BME280;33376;51.306;4.752;2023-01-29T08:53:03;103056.34;;;1.76;nan
23321;BME280;33376;51.306;4.752;2023-01-29T08:55:31;103058.94;;;1.74;nan
23321;BME280;33376;51.306;4.752;2023-01-29T08:57:56;103048.47;;;1.74;nan
23321;BME280;33376;51.306;4.752;2023-01-29T09:00:22;103039.84;;;1.78;nan
23321;BME280;33376;51.306;4.752;2023-01-29T09:02:47;103043.50;;;1.89;nan
23321;BME280;33376;51.306;4.752;2023-01-29T09:05:12;103037.22;;;1.77;nan
23321;BME280;33376;51.306;4.752;2023-01-29T09:07:37;103046.00;;;1.82;nan
23321;BME280;33376;51.306;4.752;2023-01-29T09:10:03;103038.97;;;1.79;nan
23321;BME280;33376;51.306;4.752;2023-01-29T09:12:28;103044.28;;;1.84;nan
23321;BME280;33376;51.306;4.752;2023-01-29T09:14:54;103038.31;;;1.91;nan
23321;BME280;33376;51.306;4.752;2023-01-29T09:17:19;103046.16;;;1.91;nan
23321;BME280;33376;51.306;4.752;2023-01-29T09:19:44;103031.34;;;1.91;nan
23321;BME280;33376;51.306;4.752;2023-01-29T09:22:09;103041.81;;;1.91;nan
23321;BME280;33376;51.306;4.752;2023-01-29T09:24:35;103050.53;;;1.93;nan
23321;BME280;33376;51.306;4.752;2023-01-29T09:27:00;103045.44;;;2.01;nan
23321;BME280;33376;51.306;4.752;2023-01-29T09:29:25;103044.59;;;2.03;nan
23321;BME280;33376;51.306;4.752;2023-01-29T09:31:51;103046.38;;;2.04;nan
23321;BME280;33376;51.306;4.752;2023-01-29T09:34:16;103056.13;;;2.17;nan
23321;BME280;33376;51.306;4.752;2023-01-29T09:36:41;103063.03;;;2.12;nan
23321;BME280;33376;51.306;4.752;2023-01-29T09:39:06;103071.75;;;2.11;nan
23321;BME280;33376;51.306;4.752;2023-01-29T09:41:43;103075.31;;;2.15;nan
23321;BME280;33376;51.306;4.752;2023-01-29T09:46:53;103073.66;;;2.21;nan
23321;BME280;33376;51.306;4.752;2023-01-29T09:49:23;103065.88;;;2.26;nan
23321;BME280;33376;51.306;4.752;2023-01-29T09:51:50;103065.16;;;2.36;nan
23321;BME280;33376;51.306;4.752;2023-01-29T09:56:57;103049.53;;;2.40;nan
23321;BME280;33376;51.306;4.752;2023-01-29T09:59:24;103051.31;;;2.46;nan
23321;BME280;33376;51.306;4.752;2023-01-29T10:05:05;103049.63;;;2.49;nan
23321;BME280;33376;51.306;4.752;2023-01-29T10:07:30;103052.31;;;2.54;nan
23321;BME280;33376;51.306;4.752;2023-01-29T10:12:31;103057.66;;;2.60;nan
23321;BME280;33376;51.306;4.752;2023-01-29T10:18:04;103062.09;;;2.67;nan
23321;BME280;33376;51.306;4.752;2023-01-29T10:25:29;103069.28;;;2.83;nan
23321;BME280;33376;51.306;4.752;2023-01-29T10:27:57;103070.25;;;2.89;nan
23321;BME280;33376;51.306;4.752;2023-01-29T10:32:51;103078.09;;;2.89;nan
23321;BME280;33376;51.306;4.752;2023-01-29T10:35:20;103092.09;;;2.90;nan
23321;BME280;33376;51.306;4.752;2023-01-29T10:37:46;103081.72;;;2.99;nan
23321;BME280;33376;51.306;4.752;2023-01-29T10:42:56;103078.38;;;3.11;nan
23321;BME280;33376;51.306;4.752;2023-01-29T10:45:33;103074.88;;;3.12;nan
23321;BME280;33376;51.306;4.752;2023-01-29T10:48:06;103081.91;;;3.16;nan
23321;BME280;33376;51.306;4.752;2023-01-29T10:50:38;103094.22;;;3.24;nan
23321;BME280;33376;51.306;4.752;2023-01-29T10:53:18;103100.53;;;3.37;nan
23321;BME280;33376;51.306;4.752;2023-01-29T10:58:35;103099.69;;;3.42;nan
23321;BME280;33376;51.306;4.752;2023-01-29T11:01:02;103098.91;;;3.49;nan
23321;BME280;33376;51.306;4.752;2023-01-29T11:03:28;103097.22;;;3.57;nan
23321;BME280;33376;51.306;4.752;2023-01-29T11:06:03;103098.19;;;3.65;nan
23321;BME280;33376;51.306;4.752;2023-01-29T11:08:42;103099.19;;;3.78;nan
23321;BME280;33376;51.306;4.752;2023-01-29T11:11:14;103110.59;;;3.83;nan
23321;BME280;33376;51.306;4.752;2023-01-29T11:13:44;103105.41;;;3.90;nan
23321;BME280;33376;51.306;4.752;2023-01-29T11:16:11;103102.88;;;4.01;nan
23321;BME280;33376;51.306;4.752;2023-01-29T11:21:13;103102.09;;;4.14;nan
23321;BME280;33376;51.306;4.752;2023-01-29T11:23:40;103093.44;;;4.22;nan
23321;BME280;33376;51.306;4.752;2023-01-29T11:26:05;103096.13;;;4.34;nan
23321;BME280;33376;51.306;4.752;2023-01-29T11:28:34;103090.91;;;4.42;nan
23321;BME280;33376;51.306;4.752;2023-01-29T11:30:59;103104.13;;;4.51;nan
23321;BME280;33376;51.306;4.752;2023-01-29T11:33:24;103096.22;;;4.48;nan
23321;BME280;33376;51.306;4.752;2023-01-29T11:35:49;103101.53;;;4.60;nan
23321;BME280;33376;51.306;4.752;2023-01-29T11:38:28;103098.03;;;4.60;nan
23321;BME280;33376;51.306;4.752;2023-01-29T11:41:03;103092.72;;;4.52;nan
23321;BME280;33376;51.306;4.752;2023-01-29T11:43:29;103082.25;;;4.55;nan
23321;BME280;33376;51.306;4.752;2023-01-29T11:46:04;103080.53;;;4.66;nan
23321;BME280;33376;51.306;4.752;2023-01-29T11:48:32;103083.22;;;4.72;nan
23321;BME280;33376;51.306;4.752;2023-01-29T11:50:59;103076.19;;;4.73;nan
23321;BME280;33376;51.306;4.752;2023-01-29T11:55:50;103082.38;;;4.84;nan
23321;BME280;33376;51.306;4.752;2023-01-29T11:58:16;103086.81;;;4.89;nan
23321;BME280;33376;51.306;4.752;2023-01-29T12:00:47;103083.25;;;4.78;nan
23321;BME280;33376;51.306;4.752;2023-01-29T12:05:40;103071.03;;;4.89;nan
23321;BME280;33376;51.306;4.752;2023-01-29T12:08:17;103063.16;;;4.98;nan
23321;BME280;33376;51.306;4.752;2023-01-29T12:10:42;103056.16;;;4.97;nan
23321;BME280;33376;51.306;4.752;2023-01-29T12:15:34;103029.94;;;5.18;nan
23321;BME280;33376;51.306;4.752;2023-01-29T12:20:41;103022.09;;;5.48;nan
23321;BME280;33376;51.306;4.752;2023-01-29T12:25:35;103027.38;;;5.69;nan
23321;BME280;33376;51.306;4.752;2023-01-29T12:30:31;103021.22;;;5.67;nan
23321;BME280;33376;51.306;4.752;2023-01-29T12:35:28;103010.69;;;5.72;nan
23321;BME280;33376;51.306;4.752;2023-01-29T12:40:39;102989.63;;;5.49;nan
23321;BME280;33376;51.306;4.752;2023-01-29T12:43:29;102983.53;;;5.55;nan
23321;BME280;33376;51.306;4.752;2023-01-29T12:45:55;102984.38;;;5.66;nan
23321;BME280;33376;51.306;4.752;2023-01-29T12:48:23;102982.63;;;5.62;nan
23321;BME280;33376;51.306;4.752;2023-01-29T12:50:50;102976.47;;;5.54;nan
23321;BME280;33376;51.306;4.752;2023-01-29T12:53:25;102980.88;;;5.62;nan
23321;BME280;33376;51.306;4.752;2023-01-29T12:55:56;102972.13;;;5.68;nan
23321;BME280;33376;51.306;4.752;2023-01-29T12:58:31;102973.88;;;5.60;nan
23321;BME280;33376;51.306;4.752;2023-01-29T13:00:59;102967.72;;;5.47;nan
23321;BME280;33376;51.306;4.752;2023-01-29T13:03:28;102962.47;;;5.55;nan
23321;BME280;33376;51.306;4.752;2023-01-29T13:06:10;102961.59;;;5.48;nan
23321;BME280;33376;51.306;4.752;2023-01-29T13:08:59;102958.06;;;5.43;nan
23321;BME280;33376;51.306;4.752;2023-01-29T13:16:47;102942.28;;;5.37;nan
23321;BME280;33376;51.306;4.752;2023-01-29T13:19:19;102953.69;;;5.36;nan
23321;BME280;33376;51.306;4.752;2023-01-29T13:21:46;102951.06;;;5.47;nan
23321;BME280;33376;51.306;4.752;2023-01-29T13:24:14;102946.66;;;5.47;nan
23321;BME280;33376;51.306;4.752;2023-01-29T13:26:43;102944.94;;;5.37;nan
23321;BME280;33376;51.306;4.752;2023-01-29T13:29:15;102945.81;;;5.50;nan
23321;BME280;33376;51.306;4.752;2023-01-29T13:31:44;102937.88;;;5.39;nan
23321;BME280;33376;51.306;4.752;2023-01-29T13:34:15;102931.75;;;5.45;nan
23321;BME280;33376;51.306;4.752;2023-01-29T13:36:47;102931.78;;;5.36;nan
23321;BME280;33376;51.306;4.752;2023-01-29T13:39:27;102925.63;;;5.34;nan
23321;BME280;33376;51.306;4.752;2023-01-29T13:41:54;102920.38;;;5.31;nan
23321;BME280;33376;51.306;4.752;2023-01-29T13:44:32;102919.50;;;5.17;nan
23321;BME280;33376;51.306;4.752;2023-01-29T13:46:59;102920.34;;;5.17;nan
23321;BME280;33376;51.306;4.752;2023-01-29T13:49:28;102907.22;;;5.29;nan
23321;BME280;33376;51.306;4.752;2023-01-29T13:51:54;102910.72;;;5.27;nan
23321;BME280;33376;51.306;4.752;2023-01-29T13:54:20;102895.81;;;5.30;nan
23321;BME280;33376;51.306;4.752;2023-01-29T13:59:20;102899.31;;;5.22;nan
23321;BME280;33376;51.306;4.752;2023-01-29T14:04:21;102887.94;;;5.27;nan
23321;BME280;33376;51.306;4.752;2023-01-29T14:06:53;102892.31;;;5.18;nan
23321;BME280;33376;51.306;4.752;2023-01-29T14:10:20;102885.31;;;5.15;nan
23321;BME280;33376;51.306;4.752;2023-01-29T14:17:16;102893.22;;;5.15;nan
23321;BME280;33376;51.306;4.752;2023-01-29T14:19:46;102898.47;;;5.15;nan
23321;BME280;33376;51.306;4.752;2023-01-29T14:22:17;102887.03;;;5.24;nan
23321;BME280;33376;51.306;4.752;2023-01-29T14:24:44;102892.31;;;5.10;nan
23321;BME280;33376;51.306;4.752;2023-01-29T14:27:13;102886.19;;;5.07;nan
23321;BME280;33376;51.306;4.752;2023-01-29T14:29:43;102894.97;;;5.07;nan
23321;BME280;33376;51.306;4.752;2023-01-29T14:32:11;102886.16;;;5.14;nan
23321;BME280;33376;51.306;4.752;2023-01-29T14:39:49;102890.56;;;5.03;nan
23321;BME280;33376;51.306;4.752;2023-01-29T14:49:53;102889.66;;;4.97;nan
23321;BME280;33376;51.306;4.752;2023-01-29T14:52:19;102881.81;;;5.15;nan
23321;BME280;33376;51.306;4.752;2023-01-29T14:54:46;102888.81;;;4.96;nan
23321;BME280;33376;51.306;4.752;2023-01-29T14:57:12;102887.03;;;4.89;nan
23321;BME280;33376;51.306;4.752;2023-01-29T14:59:48;102885.31;;;4.96;nan
23321;BME280;33376;51.306;4.752;2023-01-29T15:02:19;102879.16;;;4.88;nan
23321;BME280;33376;51.306;4.752;2023-01-29T15:04:47;102874.78;;;4.93;nan
23321;BME280;33376;51.306;4.752;2023-01-29T15:07:16;102880.03;;;4.97;nan
23321;BME280;33376;51.306;4.752;2023-01-29T15:09:56;102873.03;;;4.99;nan
23321;BME280;33376;51.306;4.752;2023-01-29T15:15:02;102866.00;;;4.88;nan
23321;BME280;33376;51.306;4.752;2023-01-29T15:17:31;102863.38;;;4.86;nan
23321;BME280;33376;51.306;4.752;2023-01-29T15:19:58;102861.63;;;4.99;nan
23321;BME280;33376;51.306;4.752;2023-01-29T15:22:23;102866.00;;;4.95;nan
23321;BME280;33376;51.306;4.752;2023-01-29T15:27:28;102841.47;;;4.84;nan
23321;BME280;33376;51.306;4.752;2023-01-29T15:29:56;102842.34;;;4.92;nan
23321;BME280;33376;51.306;4.752;2023-01-29T15:32:26;102841.47;;;4.90;nan
23321;BME280;33376;51.306;4.752;2023-01-29T15:34:54;102847.63;;;4.89;nan
23321;BME280;33376;51.306;4.752;2023-01-29T15:37:28;102837.97;;;4.73;nan